Sara Borchard — V2BY8 — position and weather

sailwx.info

Track history (hours):
 
Tides and Currents Weather Stations Pressure Air Temp Water Temp Dewpoint Dewpoint Depression Visibility Wind Speed Wind Dir Waves Ship Positions

Sara Borchard

Last reported at 2015-Mar-31 00:08 UTC. Time now 2015-Apr-01 05:49 UTC.
Position N 32°53' E 034°49'.

Length 134 m; draft 8.1 m.

Type: Ship (hazmat cat A). MMSI: 304962000.

Date/timePositionNaut miles runAvg speedWind from/ knotsBaromVisibWave heightAir tempDewpointWater temp
2015-Mar-31 00:08N 32°53' E 034°49'10712.0
2015-Mar-30 15:09N 34°11' E 033°20'1113.8
2015-Mar-30 14:21N 34°21' E 033°14'1114.1
2015-Mar-30 13:34N 34°31' E 033°08'1010.4
2015-Mar-30 12:33N 34°39' E 033°01'0 0.0
2015-Mar-30 11:31N 34°39' E 033°01'0 0.0
2015-Mar-30 10:31N 34°39' E 033°01'0 0.0
2015-Mar-30 09:33N 34°39' E 033°01'0 0.0
2015-Mar-30 08:33N 34°39' E 033°01'0 0.0
2015-Mar-30 07:32N 34°39' E 033°01'0 0.0
2015-Mar-30 06:32N 34°39' E 033°01'1 0.6
2015-Mar-30 05:33N 34°39' E 033°02'1 1.1
2015-Mar-30 04:33N 34°39' E 033°03'2 1.9
2015-Mar-30 03:33N 34°37' E 033°03'3 3.4
2015-Mar-30 02:34N 34°33' E 033°04'1413.8
2015-Mar-30 01:33N 34°32' E 032°47'1615.5
2015-Mar-30 00:33N 34°35' E 032°29'  
2015-Mar-27 01:17N 42°05' E 010°17'3616.8
2015-Mar-26 23:10N 42°35' E 009°51'1117.3
2015-Mar-26 22:33N 42°45' E 009°46'1717.1
2015-Mar-26 21:32N 43°02' E 009°40'1716.9
2015-Mar-26 20:33N 43°17' E 009°32'1716.7
2015-Mar-26 19:33N 43°33' E 009°24'1717.3
2015-Mar-26 18:33N 43°49' E 009°14'1717.2
2015-Mar-26 17:33N 44°05' E 009°06'1716.9
2015-Mar-26 16:34N 44°21' E 008°58'4 4.4
2015-Mar-26 15:33N 44°24' E 008°54'0 0.0
2015-Mar-26 14:33N 44°24' E 008°54'0 0.0
2015-Mar-26 13:29N 44°24' E 008°54'0 0.0
2015-Mar-26 12:32N 44°24' E 008°54'0 0.0
2015-Mar-26 11:31N 44°24' E 008°54'0 0.0
2015-Mar-26 10:31N 44°24' E 008°54'0 0.0
2015-Mar-26 09:33N 44°24' E 008°54'0 0.0
2015-Mar-26 08:33N 44°24' E 008°54'0 0.0
2015-Mar-26 07:32N 44°24' E 008°54'0 0.0
2015-Mar-26 06:32N 44°24' E 008°54'0 0.0
2015-Mar-26 05:32N 44°24' E 008°54'0 0.1
2015-Mar-26 04:33N 44°24' E 008°54'6 6.3
2015-Mar-26 03:33N 44°19' E 008°58'1413.5
2015-Mar-26 02:33N 44°09' E 008°45'1313.0
2015-Mar-26 01:33N 44°00' E 008°32'1312.7
2015-Mar-26 00:33N 43°51' E 008°20'1413.3
2015-Mar-25 23:30N 43°41' E 008°06'1313.2
2015-Mar-25 22:33N 43°34' E 007°52'1413.7
2015-Mar-25 21:33N 43°26' E 007°36'1413.7
2015-Mar-25 20:32N 43°18' E 007°20'1414.0
2015-Mar-25 19:33N 43°11' E 007°05'1515.2
2015-Mar-25 18:33N 43°02' E 006°48'1515.4
2015-Mar-25 17:33N 42°56' E 006°28'5115.9
2015-Mar-25 14:22N 43°07' E 005°20'1215.1
2015-Mar-25 13:34N 43°16' E 005°10'9 6.7
2015-Mar-25 12:12N 43°21' E 005°20'0 0.0
2015-Mar-25 11:18N 43°21' E 005°20'0 0.0
2015-Mar-25 10:29N 43°21' E 005°20'0 0.0
2015-Mar-25 09:17N 43°21' E 005°20'0 0.0
2015-Mar-25 08:22N 43°21' E 005°20'0 0.0
2015-Mar-25 07:22N 43°21' E 005°20'0 0.0
2015-Mar-25 06:12N 43°21' E 005°20'0 0.0
2015-Mar-25 05:33N 43°21' E 005°20'0 0.0
2015-Mar-25 04:30N 43°21' E 005°20'0 0.0
2015-Mar-25 02:29N 43°21' E 005°20'0 0.0
2015-Mar-25 01:13N 43°21' E 005°20'0 0.0
2015-Mar-25 00:25N 43°21' E 005°20'0 0.0
2015-Mar-24 22:15N 43°21' E 005°20'0 0.0
2015-Mar-24 21:18N 43°21' E 005°20'4 5.3
2015-Mar-24 20:30N 43°19' E 005°15'1112.1
2015-Mar-24 19:33N 43°08' E 005°10'1413.2
2015-Mar-24 18:28N 42°58' E 004°56'1111.8
2015-Mar-24 17:33N 42°50' E 004°46'1211.7
2015-Mar-24 16:32N 42°41' E 004°36'1713.9
2015-Mar-24 15:21N 42°29' E 004°20'1615.3
2015-Mar-24 14:19N 42°18' E 004°04'1416.3
2015-Mar-24 13:27N 42°10' E 003°49'1615.6
2015-Mar-24 12:27N 42°00' E 003°32'1715.1
2015-Mar-24 11:20N 41°50' E 003°15'1215.6
2015-Mar-24 10:33N 41°42' E 003°02'1515.3
2015-Mar-24 09:33N 41°33' E 002°46'1815.8
2015-Mar-24 08:27N 41°22' E 002°28'1310.1
2015-Mar-24 07:09N 41°20' E 002°10'1 0.2
2015-Mar-24 01:16N 41°21' E 002°10'0 0.1
2015-Mar-23 23:20N 41°21' E 002°10'8 9.0
2015-Mar-23 22:28N 41°14' E 002°15'1213.2
2015-Mar-23 21:33N 41°08' E 002°29'1414.0
2015-Mar-23 20:33N 41°02' E 002°46'1414.0
2015-Mar-23 19:33N 40°56' E 003°02'2215.5
2015-Mar-23 18:09N 40°46' E 003°28'1716.5
2015-Mar-23 17:06N 40°38' E 003°48'21416.7
2015-Mar-23 04:17N 38°58' E 007°54'1317.1
2015-Mar-23 03:30N 38°51' E 008°09'2016.5
2015-Mar-23 02:17N 38°43' E 008°32'1316.9
2015-Mar-23 01:33N 38°38' E 008°47'15216.5
2015-Mar-22 16:23N 37°45' E 011°48'1716.7
2015-Mar-22 15:23N 37°36' E 012°05'7116.9
2015-Mar-22 11:11N 37°01' E 013°22'1117.1
2015-Mar-22 10:33N 36°55' E 013°34'1716.7
2015-Mar-22 09:33N 36°47' E 013°52'1716.6
2015-Mar-22 08:33N 36°39' E 014°10'1717.1
2015-Mar-22 07:33N 36°30' E 014°29'  
Track history (hours):
 
Tides and Currents Weather Stations Pressure Air Temp Water Temp Dewpoint Dewpoint Depression Visibility Wind Speed Wind Dir Waves Ship Positions

Sara Borchard

Last reported at 2015-Mar-31 00:08 UTC. Time now 2015-Apr-01 05:49 UTC.
Position N 32°53' E 034°49'.

Length 134 m; draft 8.1 m.

Type: Ship (hazmat cat A). MMSI: 304962000.

Date/timePositionNaut miles runAvg speedWind from/ knotsBaromVisibWave heightAir tempDewpointWater temp
2015-Mar-31 00:08N 32°53' E 034°49'10712.0
2015-Mar-30 15:09N 34°11' E 033°20'1113.8
2015-Mar-30 14:21N 34°21' E 033°14'1114.1
2015-Mar-30 13:34N 34°31' E 033°08'1010.4
2015-Mar-30 12:33N 34°39' E 033°01'0 0.0
2015-Mar-30 11:31N 34°39' E 033°01'0 0.0
2015-Mar-30 10:31N 34°39' E 033°01'0 0.0
2015-Mar-30 09:33N 34°39' E 033°01'0 0.0
2015-Mar-30 08:33N 34°39' E 033°01'0 0.0
2015-Mar-30 07:32N 34°39' E 033°01'0 0.0
2015-Mar-30 06:32N 34°39' E 033°01'1 0.6
2015-Mar-30 05:33N 34°39' E 033°02'1 1.1
2015-Mar-30 04:33N 34°39' E 033°03'2 1.9
2015-Mar-30 03:33N 34°37' E 033°03'3 3.4
2015-Mar-30 02:34N 34°33' E 033°04'1413.8
2015-Mar-30 01:33N 34°32' E 032°47'1615.5
2015-Mar-30 00:33N 34°35' E 032°29'  
2015-Mar-27 01:17N 42°05' E 010°17'3616.8
2015-Mar-26 23:10N 42°35' E 009°51'1117.3
2015-Mar-26 22:33N 42°45' E 009°46'1717.1
2015-Mar-26 21:32N 43°02' E 009°40'1716.9
2015-Mar-26 20:33N 43°17' E 009°32'1716.7
2015-Mar-26 19:33N 43°33' E 009°24'1717.3
2015-Mar-26 18:33N 43°49' E 009°14'1717.2
2015-Mar-26 17:33N 44°05' E 009°06'1716.9
2015-Mar-26 16:34N 44°21' E 008°58'4 4.4
2015-Mar-26 15:33N 44°24' E 008°54'0 0.0
2015-Mar-26 14:33N 44°24' E 008°54'0 0.0
2015-Mar-26 13:29N 44°24' E 008°54'0 0.0
2015-Mar-26 12:32N 44°24' E 008°54'0 0.0
2015-Mar-26 11:31N 44°24' E 008°54'0 0.0
2015-Mar-26 10:31N 44°24' E 008°54'0 0.0
2015-Mar-26 09:33N 44°24' E 008°54'0 0.0
2015-Mar-26 08:33N 44°24' E 008°54'0 0.0
2015-Mar-26 07:32N 44°24' E 008°54'0 0.0
2015-Mar-26 06:32N 44°24' E 008°54'0 0.0
2015-Mar-26 05:32N 44°24' E 008°54'0 0.1
2015-Mar-26 04:33N 44°24' E 008°54'6 6.3
2015-Mar-26 03:33N 44°19' E 008°58'1413.5
2015-Mar-26 02:33N 44°09' E 008°45'1313.0
2015-Mar-26 01:33N 44°00' E 008°32'1312.7
2015-Mar-26 00:33N 43°51' E 008°20'1413.3
2015-Mar-25 23:30N 43°41' E 008°06'1313.2
2015-Mar-25 22:33N 43°34' E 007°52'1413.7
2015-Mar-25 21:33N 43°26' E 007°36'1413.7
2015-Mar-25 20:32N 43°18' E 007°20'1414.0
2015-Mar-25 19:33N 43°11' E 007°05'1515.2
2015-Mar-25 18:33N 43°02' E 006°48'1515.4
2015-Mar-25 17:33N 42°56' E 006°28'5115.9
2015-Mar-25 14:22N 43°07' E 005°20'1215.1
2015-Mar-25 13:34N 43°16' E 005°10'9 6.7
2015-Mar-25 12:12N 43°21' E 005°20'0 0.0
2015-Mar-25 11:18N 43°21' E 005°20'0 0.0
2015-Mar-25 10:29N 43°21' E 005°20'0 0.0
2015-Mar-25 09:17N 43°21' E 005°20'0 0.0
2015-Mar-25 08:22N 43°21' E 005°20'0 0.0
2015-Mar-25 07:22N 43°21' E 005°20'0 0.0
2015-Mar-25 06:12N 43°21' E 005°20'0 0.0
2015-Mar-25 05:33N 43°21' E 005°20'0 0.0
2015-Mar-25 04:30N 43°21' E 005°20'0 0.0
2015-Mar-25 02:29N 43°21' E 005°20'0 0.0
2015-Mar-25 01:13N 43°21' E 005°20'0 0.0
2015-Mar-25 00:25N 43°21' E 005°20'0 0.0
2015-Mar-24 22:15N 43°21' E 005°20'0 0.0
2015-Mar-24 21:18N 43°21' E 005°20'4 5.3
2015-Mar-24 20:30N 43°19' E 005°15'1112.1
2015-Mar-24 19:33N 43°08' E 005°10'1413.2
2015-Mar-24 18:28N 42°58' E 004°56'1111.8
2015-Mar-24 17:33N 42°50' E 004°46'1211.7
2015-Mar-24 16:32N 42°41' E 004°36'1713.9
2015-Mar-24 15:21N 42°29' E 004°20'1615.3
2015-Mar-24 14:19N 42°18' E 004°04'1416.3
2015-Mar-24 13:27N 42°10' E 003°49'1615.6
2015-Mar-24 12:27N 42°00' E 003°32'1715.1
2015-Mar-24 11:20N 41°50' E 003°15'1215.6
2015-Mar-24 10:33N 41°42' E 003°02'1515.3
2015-Mar-24 09:33N 41°33' E 002°46'1815.8
2015-Mar-24 08:27N 41°22' E 002°28'1310.1
2015-Mar-24 07:09N 41°20' E 002°10'1 0.2
2015-Mar-24 01:16N 41°21' E 002°10'0 0.1
2015-Mar-23 23:20N 41°21' E 002°10'8 9.0
2015-Mar-23 22:28N 41°14' E 002°15'1213.2
2015-Mar-23 21:33N 41°08' E 002°29'1414.0
2015-Mar-23 20:33N 41°02' E 002°46'1414.0
2015-Mar-23 19:33N 40°56' E 003°02'2215.5
2015-Mar-23 18:09N 40°46' E 003°28'1716.5
2015-Mar-23 17:06N 40°38' E 003°48'21416.7
2015-Mar-23 04:17N 38°58' E 007°54'1317.1
2015-Mar-23 03:30N 38°51' E 008°09'2016.5
2015-Mar-23 02:17N 38°43' E 008°32'1316.9
2015-Mar-23 01:33N 38°38' E 008°47'15216.5
2015-Mar-22 16:23N 37°45' E 011°48'1716.7
2015-Mar-22 15:23N 37°36' E 012°05'7116.9
2015-Mar-22 11:11N 37°01' E 013°22'1117.1
2015-Mar-22 10:33N 36°55' E 013°34'1716.7
2015-Mar-22 09:33N 36°47' E 013°52'1716.6
2015-Mar-22 08:33N 36°39' E 014°10'1717.1
2015-Mar-22 07:33N 36°30' E 014°29'  

Dump ship's entire track history